Kezdőlap
METAR-TAF:

METAR-TAF

Repülőterek :

Colorado Springs, Colorado, Amerikai Egyesült Államok

földrajzi szélesség: 38-56-45N, földrajzi hosszúság: 104-34-12W, magasság: 2095 m

Jelenlegi meteorológiai megfigyelések

A jelentés 25 perccel ezelõtt készült, 07:35 UTC
Nyugat-északnyugati szél 7 kt
Hőmérséklet 18°C
Páratartalom 34%
Légköri nyomás 1023 hPa
Látótávolság: 16.1 km
Derült ég

METAR: KFLY 240735Z AUTO 29007KT 10SM CLR 18/02 A3020 RMK AO2 T01750019

Idő: 02:00 (08:00 UTC)


TAF: hiányzik

Meteorológiai megfigyelések és előrejelzések több, mint 4000 repülőtéren (METAR és TAF jelentéseket).

A térképen piros és sárga pontok jelzik az elérhető meteorológiai állomásokat.

Mozgassa az egeret a pont fölött, hogy megjelenjen az állomás neve.

Azután kattintson az időjárási megfigyelések és előrejelzések megtekintéséhez.

A térkép megváltoztatása: kattintson a fekete keresztel jelölt zöld gombra ráközelítéshez, a vonallal jelölt zöld gombra távolításhoz, vagy a zöld nyilakra a szomszédos térképek eléréséhez.


METAR-TAF: